Time;durP1;ratioP1;P1;durP2;ratioP2;P2;SDS_P1;SDS_P2;PMS_P1;PMS_P2;Temp;Humidity;BMP_temperature;BMP_pressure;BME280_temperature;BME280_humidity;BME280_pressure;Samples;Min_cycle;Max_cycle;Signal;HPM_P1;HPM_P2
2024/01/08 00:01:39;;;;;;;2.63;1.40;;;;;;;;;;5326539;28;20027;-88
2024/01/08 00:04:10;;;;;;;2.90;1.67;;;;;;;;;;5325803;28;20022;-86
2024/01/08 00:06:42;;;;;;;3.43;1.43;;;;;;;;;;5326775;28;20378;-85
2024/01/08 00:09:13;;;;;;;2.80;1.50;;;;;;;;;;5325927;28;20020;-86
2024/01/08 00:11:44;;;;;;;3.60;1.63;;;;;;;;;;5326716;28;20081;-86
2024/01/08 00:14:15;;;;;;;2.07;1.10;;;;;;;;;;5326778;28;20036;-86
2024/01/08 00:16:46;;;;;;;2.20;1.43;;;;;;;;;;5326057;28;20020;-86
2024/01/08 00:19:17;;;;;;;2.17;1.00;;;;;;;;;;5326518;28;20114;-86
2024/01/08 00:21:49;;;;;;;2.30;1.20;;;;;;;;;;5326074;28;20027;-88
2024/01/08 00:24:20;;;;;;;3.17;1.50;;;;;;;;;;5325923;28;20140;-85
2024/01/08 00:26:51;;;;;;;2.40;1.53;;;;;;;;;;5327493;28;20024;-86
2024/01/08 00:29:22;;;;;;;2.67;1.53;;;;;;;;;;5327805;28;20459;-87
2024/01/08 00:31:53;;;;;;;3.73;1.63;;;;;;;;;;5325538;28;20355;-86
2024/01/08 00:34:27;;;;;;;3.03;1.87;;;;;;;;;;5325921;28;20035;-87
2024/01/08 00:36:58;;;;;;;4.23;2.87;;;;;;;;;;5326449;28;20126;-85
2024/01/08 00:39:29;;;;;;;3.33;1.90;;;;;;;;;;5325646;28;20020;-86
2024/01/08 00:42:00;;;;;;;4.60;3.13;;;;;;;;;;5326753;28;20023;-86
2024/01/08 00:44:31;;;;;;;4.83;3.00;;;;;;;;;;5325822;28;20023;-85
2024/01/08 00:47:03;;;;;;;4.43;2.90;;;;;;;;;;5325223;28;20114;-85
2024/01/08 00:49:34;;;;;;;5.87;3.50;;;;;;;;;;5325387;28;20485;-85
2024/01/08 00:52:05;;;;;;;7.40;4.27;;;;;;;;;;5324727;28;20036;-86
2024/01/08 00:54:36;;;;;;;8.20;5.10;;;;;;;;;;5325697;28;20024;-85
2024/01/08 00:57:07;;;;;;;10.43;5.43;;;;;;;;;;5325392;28;20008;-87
2024/01/08 00:59:39;;;;;;;7.70;5.33;;;;;;;;;;5324369;28;20030;-88
2024/01/08 01:02:10;;;;;;;12.27;6.40;;;;;;;;;;5325507;28;20019;-87
2024/01/08 01:04:41;;;;;;;10.53;6.67;;;;;;;;;;5335071;27;20045;-87
2024/01/08 01:07:12;;;;;;;10.23;6.43;;;;;;;;;;5346057;27;20027;-85
2024/01/08 01:09:43;;;;;;;9.57;6.97;;;;;;;;;;5346579;27;20021;-85
2024/01/08 01:12:14;;;;;;;13.20;8.03;;;;;;;;;;5345690;27;20039;-84
2024/01/08 01:14:46;;;;;;;21.87;12.07;;;;;;;;;;5345754;27;20025;-85
2024/01/08 01:17:17;;;;;;;18.13;11.53;;;;;;;;;;5346092;27;20027;-87
2024/01/08 01:19:48;;;;;;;19.67;11.93;;;;;;;;;;5345027;27;20872;-85
2024/01/08 01:22:19;;;;;;;22.70;12.93;;;;;;;;;;5346147;27;20012;-85
2024/01/08 01:24:50;;;;;;;20.33;11.03;;;;;;;;;;5345986;27;20011;-85
2024/01/08 01:27:22;;;;;;;22.23;12.40;;;;;;;;;;5344965;27;20515;-84
2024/01/08 01:29:53;;;;;;;14.97;10.10;;;;;;;;;;5346169;27;20038;-85
2024/01/08 01:32:24;;;;;;;14.67;9.10;;;;;;;;;;5345319;27;20045;-85
2024/01/08 01:34:56;;;;;;;12.17;8.63;;;;;;;;;;5344336;27;20091;-85
2024/01/08 01:37:27;;;;;;;10.67;6.90;;;;;;;;;;5345555;27;20019;-84
2024/01/08 01:39:58;;;;;;;8.40;5.33;;;;;;;;;;5346091;27;20064;-85
2024/01/08 01:42:30;;;;;;;7.90;5.33;;;;;;;;;;5342230;27;20016;-86
2024/01/08 01:45:01;;;;;;;6.10;4.20;;;;;;;;;;5346088;27;20048;-88
2024/01/08 01:47:32;;;;;;;6.03;4.57;;;;;;;;;;5346509;27;20102;-86
2024/01/08 01:50:05;;;;;;;7.00;3.97;;;;;;;;;;5344322;27;20039;-86
2024/01/08 01:52:36;;;;;;;6.70;4.37;;;;;;;;;;5345554;27;20038;-86
2024/01/08 01:55:07;;;;;;;5.13;4.10;;;;;;;;;;5343411;27;20023;-86
2024/01/08 01:57:40;;;;;;;5.63;3.80;;;;;;;;;;5345445;27;20054;-85
2024/01/08 02:00:11;;;;;;;6.60;4.27;;;;;;;;;;5345689;27;20019;-84
2024/01/08 02:02:43;;;;;;;6.00;4.17;;;;;;;;;;5344711;27;20019;-85
2024/01/08 02:05:14;;;;;;;5.07;3.23;;;;;;;;;;5345386;28;20026;-86
2024/01/08 02:07:46;;;;;;;6.20;4.07;;;;;;;;;;5345371;28;20023;-85
2024/01/08 02:10:18;;;;;;;6.63;3.40;;;;;;;;;;5344765;28;20035;-85
2024/01/08 02:12:49;;;;;;;5.27;3.93;;;;;;;;;;5345610;28;20031;-85
2024/01/08 02:15:20;;;;;;;3.83;3.07;;;;;;;;;;5345607;28;20031;-86
2024/01/08 02:17:51;;;;;;;4.80;2.90;;;;;;;;;;5344842;28;20023;-85
2024/01/08 02:20:22;;;;;;;3.53;2.63;;;;;;;;;;5344809;28;20019;-85
2024/01/08 02:22:54;;;;;;;3.90;3.07;;;;;;;;;;5344783;28;20078;-84
2024/01/08 02:25:26;;;;;;;3.33;2.63;;;;;;;;;;5349063;27;20027;-84
2024/01/08 02:27:57;;;;;;;4.40;2.27;;;;;;;;;;5349850;27;20098;-86
2024/01/08 02:30:28;;;;;;;3.53;1.40;;;;;;;;;;5348897;27;20098;-84
2024/01/08 02:32:59;;;;;;;2.60;1.70;;;;;;;;;;5349465;27;20038;-87
2024/01/08 02:35:31;;;;;;;3.07;1.73;;;;;;;;;;5349293;27;20019;-83
2024/01/08 02:38:02;;;;;;;2.83;1.60;;;;;;;;;;5348718;27;20119;-86
2024/01/08 02:40:33;;;;;;;2.40;1.57;;;;;;;;;;5349705;27;20355;-83
2024/01/08 02:43:05;;;;;;;3.03;1.50;;;;;;;;;;5349343;27;20023;-85
2024/01/08 02:45:36;;;;;;;6.87;2.13;;;;;;;;;;5348397;27;20019;-85
2024/01/08 02:48:07;;;;;;;2.77;1.87;;;;;;;;;;5349342;27;20030;-86
2024/01/08 02:50:38;;;;;;;2.33;1.50;;;;;;;;;;5349264;27;20035;-85
2024/01/08 02:53:10;;;;;;;2.47;1.20;;;;;;;;;;5348606;27;20086;-84
2024/01/08 02:55:41;;;;;;;3.07;1.80;;;;;;;;;;5349223;27;20027;-85
2024/01/08 02:58:12;;;;;;;3.20;1.57;;;;;;;;;;5348602;27;20027;-86
2024/01/08 03:00:43;;;;;;;3.33;1.73;;;;;;;;;;5349481;27;20034;-86
2024/01/08 03:03:14;;;;;;;3.30;1.60;;;;;;;;;;5349263;27;20210;-84
2024/01/08 03:05:46;;;;;;;2.77;1.70;;;;;;;;;;5348296;27;20094;-84
2024/01/08 03:08:17;;;;;;;3.80;1.67;;;;;;;;;;5348870;27;20019;-84
2024/01/08 03:10:48;;;;;;;3.23;1.80;;;;;;;;;;5348660;27;20019;-85
2024/01/08 03:13:19;;;;;;;4.93;2.07;;;;;;;;;;5348442;27;20030;-85
2024/01/08 03:15:50;;;;;;;3.57;2.10;;;;;;;;;;5348912;27;20493;-84
2024/01/08 03:18:21;;;;;;;3.00;2.13;;;;;;;;;;5349068;27;20045;-85
2024/01/08 03:20:52;;;;;;;4.03;2.10;;;;;;;;;;5350099;27;20045;-85
2024/01/08 03:23:24;;;;;;;4.57;2.37;;;;;;;;;;5348621;27;20106;-84
2024/01/08 03:25:55;;;;;;;3.80;2.23;;;;;;;;;;5349236;27;20080;-85
2024/01/08 03:28:26;;;;;;;3.90;2.50;;;;;;;;;;5347539;27;20015;-85
2024/01/08 03:30:57;;;;;;;3.90;2.70;;;;;;;;;;5348551;27;20413;-84
2024/01/08 03:33:29;;;;;;;3.27;2.30;;;;;;;;;;5348405;27;20034;-84
2024/01/08 03:36:00;;;;;;;3.13;2.27;;;;;;;;;;5348364;27;20115;-86
2024/01/08 03:38:31;;;;;;;3.30;1.90;;;;;;;;;;5348630;27;20469;-85
2024/01/08 03:41:03;;;;;;;3.70;2.07;;;;;;;;;;5348290;27;20156;-84
2024/01/08 03:43:34;;;;;;;2.93;1.70;;;;;;;;;;5348695;27;20019;-85
2024/01/08 03:46:06;;;;;;;5.23;2.47;;;;;;;;;;5348083;27;20023;-84
2024/01/08 03:48:37;;;;;;;3.47;1.97;;;;;;;;;;5350119;27;20019;-85
2024/01/08 03:51:08;;;;;;;3.40;2.20;;;;;;;;;;5348228;27;20043;-85
2024/01/08 03:53:39;;;;;;;2.90;1.80;;;;;;;;;;5348380;27;20031;-85
2024/01/08 03:56:11;;;;;;;3.73;2.30;;;;;;;;;;5349329;27;20018;-85
2024/01/08 03:58:42;;;;;;;4.97;2.43;;;;;;;;;;5348181;27;20053;-85
2024/01/08 04:01:13;;;;;;;2.93;2.30;;;;;;;;;;5348712;27;20022;-85
2024/01/08 04:03:44;;;;;;;4.13;2.20;;;;;;;;;;5347047;27;20025;-84
2024/01/08 04:06:16;;;;;;;2.83;2.13;;;;;;;;;;5347705;27;20504;-84
2024/01/08 04:08:47;;;;;;;3.13;2.07;;;;;;;;;;5346511;27;20027;-84
2024/01/08 04:11:18;;;;;;;2.93;2.10;;;;;;;;;;5347644;27;20020;-84
2024/01/08 04:13:50;;;;;;;3.50;2.10;;;;;;;;;;5347635;27;20027;-84
2024/01/08 04:16:21;;;;;;;3.10;2.00;;;;;;;;;;5346419;27;20015;-84
2024/01/08 04:18:52;;;;;;;4.13;2.10;;;;;;;;;;5347705;27;20022;-84
2024/01/08 04:21:23;;;;;;;5.13;2.47;;;;;;;;;;5346817;27;20022;-84
2024/01/08 04:23:54;;;;;;;3.10;2.03;;;;;;;;;;5346728;27;20023;-83
2024/01/08 04:26:27;;;;;;;4.37;2.60;;;;;;;;;;5346816;27;20052;-83
2024/01/08 04:28:58;;;;;;;4.07;2.30;;;;;;;;;;5347285;27;20019;-83
2024/01/08 04:31:31;;;;;;;2.90;1.73;;;;;;;;;;5346394;27;20492;-84
2024/01/08 04:34:02;;;;;;;3.60;2.30;;;;;;;;;;5347128;27;20046;-84
2024/01/08 04:36:33;;;;;;;3.37;2.17;;;;;;;;;;5346085;27;20023;-83
2024/01/08 04:39:04;;;;;;;2.83;2.10;;;;;;;;;;5347072;27;20015;-84
2024/01/08 04:41:36;;;;;;;3.70;1.90;;;;;;;;;;5346824;27;20034;-84
2024/01/08 04:44:07;;;;;;;3.23;1.60;;;;;;;;;;5346160;27;20400;-85
2024/01/08 04:46:41;;;;;;;3.07;1.70;;;;;;;;;;5346995;27;20054;-84
2024/01/08 04:49:12;;;;;;;3.63;2.23;;;;;;;;;;5346880;27;20077;-83
2024/01/08 04:51:43;;;;;;;3.70;2.00;;;;;;;;;;5345855;27;20086;-85
2024/01/08 04:54:14;;;;;;;4.00;1.90;;;;;;;;;;5346756;27;20015;-85
2024/01/08 04:56:48;;;;;;;3.30;1.90;;;;;;;;;;5346615;27;20026;-83
2024/01/08 04:59:21;;;;;;;4.80;2.33;;;;;;;;;;5346070;27;20019;-84
2024/01/08 05:01:52;;;;;;;5.67;2.40;;;;;;;;;;5346931;27;20385;-84
2024/01/08 05:04:23;;;;;;;4.47;2.53;;;;;;;;;;5345985;27;20015;-84
2024/01/08 05:06:54;;;;;;;3.73;2.20;;;;;;;;;;5345848;27;20524;-84
2024/01/08 05:09:26;;;;;;;3.80;1.90;;;;;;;;;;5345676;27;20403;-84
2024/01/08 05:11:57;;;;;;;5.83;2.10;;;;;;;;;;5345617;27;20034;-84
2024/01/08 05:14:28;;;;;;;3.40;1.93;;;;;;;;;;5346404;27;20011;-85
2024/01/08 05:16:59;;;;;;;3.40;1.83;;;;;;;;;;5346368;27;20144;-83
2024/01/08 05:19:30;;;;;;;3.83;1.80;;;;;;;;;;5345622;27;20015;-84
2024/01/08 05:22:02;;;;;;;3.47;2.17;;;;;;;;;;5345788;27;20023;-84
2024/01/08 05:24:33;;;;;;;3.53;1.77;;;;;;;;;;5346362;27;20011;-83
2024/01/08 05:27:04;;;;;;;3.83;2.13;;;;;;;;;;5345316;27;20026;-83
2024/01/08 05:29:35;;;;;;;3.83;1.97;;;;;;;;;;5345926;27;20158;-84
2024/01/08 05:32:06;;;;;;;4.27;2.43;;;;;;;;;;5345633;27;20038;-84
2024/01/08 05:34:38;;;;;;;5.13;2.50;;;;;;;;;;5345228;27;20481;-83
2024/01/08 05:37:09;;;;;;;3.40;2.10;;;;;;;;;;5345962;27;20023;-84
2024/01/08 05:39:40;;;;;;;4.93;2.70;;;;;;;;;;5346029;27;20046;-84
2024/01/08 05:42:11;;;;;;;3.80;2.10;;;;;;;;;;5345171;27;20023;-84
2024/01/08 05:44:43;;;;;;;4.17;2.40;;;;;;;;;;5345925;27;20011;-82
2024/01/08 05:47:14;;;;;;;4.03;2.27;;;;;;;;;;5345700;27;20016;-85
2024/01/08 05:49:45;;;;;;;4.93;2.47;;;;;;;;;;5350801;27;20067;-84
2024/01/08 05:52:16;;;;;;;6.20;3.10;;;;;;;;;;5352535;27;20169;-83
2024/01/08 05:54:48;;;;;;;4.27;2.97;;;;;;;;;;5345724;27;20023;-84
2024/01/08 05:57:19;;;;;;;4.47;2.80;;;;;;;;;;5346685;27;20064;-84
2024/01/08 05:59:50;;;;;;;5.33;3.23;;;;;;;;;;5345780;27;20035;-84
2024/01/08 06:02:21;;;;;;;6.13;3.93;;;;;;;;;;5344719;27;20066;-84
2024/01/08 06:04:52;;;;;;;4.27;2.80;;;;;;;;;;5346100;27;20025;-85
2024/01/08 06:07:24;;;;;;;4.10;2.70;;;;;;;;;;5345480;28;20079;-83
2024/01/08 06:09:55;;;;;;;6.40;3.00;;;;;;;;;;5344758;28;20477;-85
2024/01/08 06:12:26;;;;;;;5.17;3.10;;;;;;;;;;5344983;28;20027;-84
2024/01/08 06:14:57;;;;;;;5.77;2.77;;;;;;;;;;5344500;28;20042;-84
2024/01/08 06:17:28;;;;;;;4.80;2.80;;;;;;;;;;5345060;28;20534;-84
2024/01/08 06:20:00;;;;;;;5.23;3.00;;;;;;;;;;5345261;28;20071;-85
2024/01/08 06:22:31;;;;;;;5.83;3.40;;;;;;;;;;5344889;28;20142;-85
2024/01/08 06:25:03;;;;;;;4.10;2.70;;;;;;;;;;5345427;28;20071;-85
2024/01/08 06:27:34;;;;;;;4.30;3.23;;;;;;;;;;5345294;28;20019;-83
2024/01/08 06:30:05;;;;;;;4.53;3.10;;;;;;;;;;5344345;28;20048;-85
2024/01/08 06:32:37;;;;;;;6.97;3.77;;;;;;;;;;5345191;28;20390;-83
2024/01/08 06:35:08;;;;;;;5.83;3.23;;;;;;;;;;5345528;28;20026;-84
2024/01/08 06:37:40;;;;;;;5.57;3.33;;;;;;;;;;5344640;28;20106;-84
2024/01/08 06:40:11;;;;;;;6.70;3.93;;;;;;;;;;5345365;28;20027;-83
2024/01/08 06:42:43;;;;;;;5.57;3.83;;;;;;;;;;5345424;28;20015;-84
2024/01/08 06:45:14;;;;;;;5.13;3.57;;;;;;;;;;5344361;28;20023;-84
2024/01/08 06:47:45;;;;;;;6.00;4.10;;;;;;;;;;5345398;28;20469;-85
2024/01/08 06:50:16;;;;;;;9.37;5.70;;;;;;;;;;5344461;28;20078;-84
2024/01/08 06:52:47;;;;;;;27.73;12.67;;;;;;;;;;5345356;28;20031;-85
2024/01/08 06:55:19;;;;;;;20.70;9.73;;;;;;;;;;5345306;28;20027;-84
2024/01/08 06:57:52;;;;;;;9.53;5.80;;;;;;;;;;5344464;28;20090;-83
2024/01/08 07:00:26;;;;;;;9.20;5.53;;;;;;;;;;5346401;28;20039;-86
2024/01/08 07:02:57;;;;;;;7.00;4.70;;;;;;;;;;5346206;28;20019;-85
2024/01/08 07:05:28;;;;;;;7.43;4.27;;;;;;;;;;5344366;28;20094;-85
2024/01/08 07:07:59;;;;;;;5.37;4.13;;;;;;;;;;5345098;28;20396;-84
2024/01/08 07:10:33;;;;;;;7.57;5.13;;;;;;;;;;5345922;27;20365;-85
2024/01/08 07:13:04;;;;;;;8.50;5.70;;;;;;;;;;5348442;27;20030;-85
2024/01/08 07:15:43;;;;;;;7.37;5.30;;;;;;;;;;5349126;27;20029;-85
2024/01/08 07:18:15;;;;;;;6.43;4.40;;;;;;;;;;5348122;27;20106;-84
2024/01/08 07:20:47;;;;;;;6.30;4.07;;;;;;;;;;5349471;27;20636;-86
2024/01/08 07:23:18;;;;;;;6.30;3.77;;;;;;;;;;5349606;27;20060;-87
2024/01/08 07:25:52;;;;;;;6.13;4.17;;;;;;;;;;5348445;27;20026;-84
2024/01/08 07:28:23;;;;;;;6.17;4.10;;;;;;;;;;5348446;27;20023;-83
2024/01/08 07:30:55;;;;;;;7.87;4.77;;;;;;;;;;5348913;27;20023;-84
2024/01/08 07:33:26;;;;;;;7.43;4.50;;;;;;;;;;5347560;27;20035;-83
2024/01/08 07:35:57;;;;;;;6.40;4.47;;;;;;;;;;5349054;27;20027;-84
2024/01/08 07:38:28;;;;;;;6.07;4.27;;;;;;;;;;5354630;27;20098;-83
2024/01/08 07:41:00;;;;;;;5.53;3.93;;;;;;;;;;5353484;27;20496;-84
2024/01/08 07:43:31;;;;;;;8.20;5.73;;;;;;;;;;5348758;27;20029;-84
2024/01/08 07:46:02;;;;;;;6.87;4.30;;;;;;;;;;5348996;27;20465;-84
2024/01/08 07:48:34;;;;;;;7.20;4.00;;;;;;;;;;5348464;27;20023;-85
2024/01/08 07:51:05;;;;;;;5.33;4.30;;;;;;;;;;5348415;27;20445;-85
2024/01/08 07:53:36;;;;;;;6.37;4.63;;;;;;;;;;5348222;27;20056;-85
2024/01/08 07:56:07;;;;;;;8.70;4.13;;;;;;;;;;5349369;27;20023;-86
2024/01/08 07:58:39;;;;;;;4.50;3.57;;;;;;;;;;5349126;27;20381;-85
2024/01/08 08:01:12;;;;;;;6.47;3.93;;;;;;;;;;5348739;27;20027;-85
2024/01/08 08:03:43;;;;;;;7.20;4.00;;;;;;;;;;5350483;27;20373;-86
2024/01/08 08:06:14;;;;;;;6.90;4.10;;;;;;;;;;5348532;27;20075;-84
2024/01/08 08:08:45;;;;;;;6.33;4.47;;;;;;;;;;5348661;27;20023;-85
2024/01/08 08:11:17;;;;;;;7.10;4.60;;;;;;;;;;5348458;27;20023;-88
2024/01/08 08:13:48;;;;;;;7.27;4.30;;;;;;;;;;5349805;27;20028;-85
2024/01/08 08:16:20;;;;;;;7.07;4.27;;;;;;;;;;5347661;27;20153;-85
2024/01/08 08:18:52;;;;;;;5.80;3.60;;;;;;;;;;5348341;27;20059;-85
2024/01/08 08:21:23;;;;;;;5.57;3.70;;;;;;;;;;5347783;27;20019;-86
2024/01/08 08:23:57;;;;;;;6.47;4.30;;;;;;;;;;5348582;27;20023;-85
2024/01/08 08:26:28;;;;;;;5.97;4.00;;;;;;;;;;5350310;27;20045;-87
2024/01/08 08:29:00;;;;;;;4.93;3.47;;;;;;;;;;5351508;27;20003;-87
2024/01/08 08:31:31;;;;;;;7.73;4.13;;;;;;;;;;5350527;27;20031;-85
2024/01/08 08:34:03;;;;;;;4.53;3.00;;;;;;;;;;5349161;27;20377;-87
2024/01/08 08:36:34;;;;;;;4.83;3.27;;;;;;;;;;5346997;27;20481;-87
2024/01/08 08:39:05;;;;;;;5.10;3.37;;;;;;;;;;5348496;27;20115;-87
2024/01/08 08:41:37;;;;;;;5.67;3.03;;;;;;;;;;5348521;27;20481;-86
2024/01/08 08:44:08;;;;;;;5.10;3.40;;;;;;;;;;5348223;27;20033;-85
2024/01/08 08:46:40;;;;;;;7.00;3.87;;;;;;;;;;5347917;27;20031;-88
2024/01/08 08:49:13;;;;;;;5.43;2.93;;;;;;;;;;5347135;27;20019;-85
2024/01/08 08:51:44;;;;;;;4.80;3.13;;;;;;;;;;5346287;27;20043;-85
2024/01/08 08:54:15;;;;;;;5.30;3.80;;;;;;;;;;5341051;27;20050;-84
2024/01/08 08:56:47;;;;;;;4.23;2.23;;;;;;;;;;5345971;27;20458;-86
2024/01/08 08:59:19;;;;;;;5.50;2.70;;;;;;;;;;5346829;27;20019;-86
2024/01/08 09:01:50;;;;;;;4.53;2.63;;;;;;;;;;5348078;27;20024;-85
2024/01/08 09:04:22;;;;;;;4.07;2.27;;;;;;;;;;5346294;27;20072;-87
2024/01/08 09:06:53;;;;;;;4.70;2.90;;;;;;;;;;5345759;27;20027;-85
2024/01/08 09:09:24;;;;;;;4.37;2.60;;;;;;;;;;5346398;27;20022;-87
2024/01/08 09:11:55;;;;;;;5.80;3.07;;;;;;;;;;5347177;27;20048;-88
2024/01/08 09:14:27;;;;;;;4.37;3.03;;;;;;;;;;5347753;27;20018;-89
2024/01/08 09:16:58;;;;;;;4.50;3.27;;;;;;;;;;5347710;27;20026;-87
2024/01/08 09:19:29;;;;;;;3.00;1.77;;;;;;;;;;5346685;27;20050;-85
2024/01/08 09:22:00;;;;;;;5.13;3.03;;;;;;;;;;5347381;27;20023;-84
2024/01/08 09:24:32;;;;;;;8.40;3.77;;;;;;;;;;5347421;27;20120;-83
2024/01/08 09:27:03;;;;;;;4.63;2.03;;;;;;;;;;5347004;27;20034;-84
2024/01/08 09:29:34;;;;;;;5.70;3.37;;;;;;;;;;5353488;27;20023;-80
2024/01/08 09:32:06;;;;;;;4.27;3.00;;;;;;;;;;5348505;27;20448;-83
2024/01/08 09:34:37;;;;;;;4.37;2.77;;;;;;;;;;5345196;27;20385;-79
2024/01/08 09:37:08;;;;;;;4.13;2.63;;;;;;;;;;5345791;27;20039;-79
2024/01/08 09:39:40;;;;;;;4.30;2.47;;;;;;;;;;5345212;27;20947;-79
2024/01/08 09:42:11;;;;;;;4.23;3.10;;;;;;;;;;5345679;27;20122;-80
2024/01/08 09:44:46;;;;;;;4.90;2.70;;;;;;;;;;5345868;27;20057;-80
2024/01/08 09:47:17;;;;;;;5.50;3.37;;;;;;;;;;5344776;27;20059;-81
2024/01/08 09:49:49;;;;;;;4.47;2.93;;;;;;;;;;5345487;27;20477;-81
2024/01/08 09:52:20;;;;;;;5.70;3.43;;;;;;;;;;5345334;27;20057;-80
2024/01/08 09:54:52;;;;;;;5.87;3.67;;;;;;;;;;5345164;27;20134;-79
2024/01/08 09:57:23;;;;;;;5.80;3.63;;;;;;;;;;5345423;27;20501;-80
2024/01/08 09:59:55;;;;;;;7.07;4.50;;;;;;;;;;5345666;27;20019;-80
2024/01/08 10:02:26;;;;;;;5.80;3.60;;;;;;;;;;5344594;27;20476;-79
2024/01/08 10:04:58;;;;;;;7.27;4.40;;;;;;;;;;5345359;27;20011;-79
2024/01/08 10:07:33;;;;;;;4.33;3.40;;;;;;;;;;5344545;28;20648;-81
2024/01/08 10:10:04;;;;;;;4.03;2.90;;;;;;;;;;5345300;28;20015;-80
2024/01/08 10:12:36;;;;;;;4.37;3.13;;;;;;;;;;5345332;28;20478;-79
2024/01/08 10:15:08;;;;;;;5.90;3.93;;;;;;;;;;5344441;28;20026;-81
2024/01/08 10:17:39;;;;;;;6.97;4.67;;;;;;;;;;5345170;28;20470;-78
2024/01/08 10:20:10;;;;;;;4.10;3.00;;;;;;;;;;5345305;28;20100;-78
2024/01/08 10:22:43;;;;;;;4.20;2.83;;;;;;;;;;5344490;28;20026;-78
2024/01/08 10:25:21;;;;;;;4.73;3.17;;;;;;;;;;5345255;28;20043;-82
2024/01/08 10:27:52;;;;;;;3.67;2.30;;;;;;;;;;5345524;28;20016;-82
2024/01/08 10:30:24;;;;;;;5.37;2.37;;;;;;;;;;5344037;28;20019;-78
2024/01/08 10:32:59;;;;;;;3.23;2.17;;;;;;;;;;5345519;28;20019;-80
2024/01/08 10:35:30;;;;;;;4.63;3.10;;;;;;;;;;5344281;28;20023;-81
2024/01/08 10:38:02;;;;;;;4.63;2.87;;;;;;;;;;5345245;28;20469;-81
2024/01/08 10:40:33;;;;;;;6.20;3.37;;;;;;;;;;5345017;28;20045;-79
2024/01/08 10:43:05;;;;;;;5.23;2.90;;;;;;;;;;5344456;28;20019;-78
2024/01/08 10:45:36;;;;;;;4.07;2.10;;;;;;;;;;5347609;27;20031;-78
2024/01/08 10:48:11;;;;;;;3.37;2.10;;;;;;;;;;5349270;27;20076;-78
2024/01/08 10:50:45;;;;;;;4.10;2.47;;;;;;;;;;5348228;27;20043;-79
2024/01/08 10:53:24;;;;;;;4.57;3.33;;;;;;;;;;5348722;27;20039;-80
2024/01/08 10:55:56;;;;;;;4.73;3.27;;;;;;;;;;5349292;27;20057;-81
2024/01/08 10:58:34;;;;;;;4.73;2.57;;;;;;;;;;5348018;27;20422;-79
2024/01/08 11:01:07;;;;;;;3.97;2.63;;;;;;;;;;5348753;27;20488;-81
2024/01/08 11:03:38;;;;;;;4.70;2.37;;;;;;;;;;5347763;27;20017;-79
2024/01/08 11:06:10;;;;;;;4.63;2.17;;;;;;;;;;5349053;27;20023;-80
2024/01/08 11:08:42;;;;;;;3.33;2.07;;;;;;;;;;5348919;27;20046;-78
2024/01/08 11:11:15;;;;;;;5.20;2.03;;;;;;;;;;5348104;27;20023;-80
2024/01/08 11:13:46;;;;;;;4.53;1.93;;;;;;;;;;5348491;27;20034;-81
2024/01/08 11:16:20;;;;;;;2.87;2.07;;;;;;;;;;5348858;27;20109;-81
2024/01/08 11:19:12;;;;;;;3.40;2.00;;;;;;;;;;5350016;27;20019;-80
2024/01/08 11:21:43;;;;;;;3.60;2.20;;;;;;;;;;5353123;27;20031;-80
2024/01/08 11:24:14;;;;;;;2.60;1.40;;;;;;;;;;5349330;27;20012;-78
2024/01/08 11:26:48;;;;;;;4.97;2.17;;;;;;;;;;5348329;27;20106;-77
2024/01/08 11:29:20;;;;;;;2.77;1.50;;;;;;;;;;5348497;27;20477;-78
2024/01/08 11:32:03;;;;;;;2.87;1.43;;;;;;;;;;5347720;27;20011;-79
2024/01/08 11:34:43;;;;;;;2.50;1.07;;;;;;;;;;5348463;27;20042;-82
2024/01/08 11:37:34;;;;;;;2.50;1.27;;;;;;;;;;5348484;27;20059;-80
2024/01/08 11:40:18;;;;;;;2.77;1.50;;;;;;;;;;5347485;27;20026;-80
2024/01/08 11:42:50;;;;;;;4.00;1.90;;;;;;;;;;5348054;27;20050;-81
2024/01/08 11:45:21;;;;;;;2.33;1.27;;;;;;;;;;5347935;27;20053;-82
2024/01/08 11:47:52;;;;;;;2.37;1.00;;;;;;;;;;5348009;27;20545;-80
2024/01/08 11:50:23;;;;;;;2.50;1.17;;;;;;;;;;5348015;27;20053;-81
2024/01/08 11:52:58;;;;;;;2.70;1.23;;;;;;;;;;5349081;27;20039;-82
2024/01/08 11:55:32;;;;;;;2.43;1.20;;;;;;;;;;5349289;27;20042;-84
2024/01/08 11:58:04;;;;;;;3.23;1.30;;;;;;;;;;5347534;27;20018;-82
2024/01/08 12:00:35;;;;;;;3.27;1.10;;;;;;;;;;5347947;27;20366;-83
2024/01/08 12:03:09;;;;;;;3.70;1.60;;;;;;;;;;5336109;27;20025;-83
2024/01/08 12:05:40;;;;;;;3.07;2.00;;;;;;;;;;5325365;28;20035;-83
2024/01/08 12:08:16;;;;;;;3.13;1.70;;;;;;;;;;5336457;27;20049;-84
2024/01/08 12:10:53;;;;;;;3.93;1.60;;;;;;;;;;5348570;27;20080;-84
2024/01/08 12:13:24;;;;;;;2.90;1.77;;;;;;;;;;5353380;27;20541;-85
2024/01/08 12:15:56;;;;;;;2.60;1.20;;;;;;;;;;5351318;27;20054;-85
2024/01/08 12:18:28;;;;;;;2.37;1.20;;;;;;;;;;5347436;27;20015;-85
2024/01/08 12:20:59;;;;;;;2.50;1.23;;;;;;;;;;5346552;27;20105;-83
2024/01/08 12:23:31;;;;;;;2.87;1.27;;;;;;;;;;5334546;27;20099;-83
2024/01/08 12:26:05;;;;;;;3.93;1.53;;;;;;;;;;5326043;28;20054;-83
2024/01/08 12:28:36;;;;;;;2.40;1.30;;;;;;;;;;5327693;28;20072;-82
2024/01/08 12:31:08;;;;;;;2.40;1.30;;;;;;;;;;5328322;28;20020;-82
2024/01/08 12:33:41;;;;;;;4.37;1.90;;;;;;;;;;5326066;28;20077;-82
2024/01/08 12:36:12;;;;;;;3.57;1.50;;;;;;;;;;5325253;28;20027;-77
2024/01/08 12:38:43;;;;;;;3.03;1.07;;;;;;;;;;5326206;28;20024;-84
2024/01/08 12:41:15;;;;;;;2.63;1.27;;;;;;;;;;5324708;28;20023;-75
2024/01/08 12:43:46;;;;;;;3.10;1.03;;;;;;;;;;5324529;28;20020;-78
2024/01/08 12:46:18;;;;;;;2.60;1.27;;;;;;;;;;5325128;28;20070;-84
2024/01/08 12:48:49;;;;;;;1.70;0.80;;;;;;;;;;5324867;28;20026;-85
2024/01/08 12:51:20;;;;;;;3.00;1.10;;;;;;;;;;5324546;28;20483;-85
2024/01/08 12:53:51;;;;;;;2.73;0.67;;;;;;;;;;5324967;28;20034;-85
2024/01/08 12:56:22;;;;;;;1.77;0.70;;;;;;;;;;5324512;28;20034;-84
2024/01/08 12:58:53;;;;;;;2.67;0.70;;;;;;;;;;5325978;28;20493;-86
2024/01/08 13:01:25;;;;;;;1.67;0.73;;;;;;;;;;5324947;28;20016;-86
2024/01/08 13:03:56;;;;;;;1.80;0.70;;;;;;;;;;5324402;28;20028;-85
2024/01/08 13:06:27;;;;;;;2.33;0.67;;;;;;;;;;5325043;28;20055;-84
2024/01/08 13:08:58;;;;;;;1.70;0.70;;;;;;;;;;5325589;28;20434;-86
2024/01/08 13:11:30;;;;;;;2.80;0.90;;;;;;;;;;5334548;28;20058;-85
2024/01/08 13:14:03;;;;;;;1.70;0.67;;;;;;;;;;5329063;28;20027;-86
2024/01/08 13:16:35;;;;;;;2.30;0.80;;;;;;;;;;5326456;28;20103;-85
2024/01/08 13:19:09;;;;;;;1.90;0.70;;;;;;;;;;5325152;28;20421;-86
2024/01/08 13:21:41;;;;;;;1.17;0.50;;;;;;;;;;5325610;28;20019;-87
2024/01/08 13:24:14;;;;;;;3.17;0.60;;;;;;;;;;5324797;28;20499;-87
2024/01/08 13:26:49;;;;;;;1.60;0.70;;;;;;;;;;5325030;28;20046;-86
2024/01/08 13:29:20;;;;;;;1.97;0.53;;;;;;;;;;5325156;28;20053;-85
2024/01/08 13:31:51;;;;;;;1.57;0.60;;;;;;;;;;5324818;28;20028;-86
2024/01/08 13:34:23;;;;;;;1.53;0.60;;;;;;;;;;5325049;28;20047;-86
2024/01/08 13:36:54;;;;;;;2.80;0.70;;;;;;;;;;5325300;28;20024;-84
2024/01/08 13:39:26;;;;;;;2.13;0.50;;;;;;;;;;5323838;28;20012;-86
2024/01/08 13:41:57;;;;;;;1.47;0.50;;;;;;;;;;5324810;28;20463;-77
2024/01/08 13:44:28;;;;;;;2.60;0.43;;;;;;;;;;5324467;28;20022;-87
2024/01/08 13:46:59;;;;;;;1.10;0.50;;;;;;;;;;5323873;28;20375;-76
2024/01/08 13:49:32;;;;;;;1.40;0.43;;;;;;;;;;5324230;28;20126;-82
2024/01/08 13:52:03;;;;;;;3.67;0.80;;;;;;;;;;5323763;28;20042;-84
2024/01/08 13:54:34;;;;;;;1.57;0.70;;;;;;;;;;5324338;28;20459;-85
2024/01/08 13:57:05;;;;;;;2.27;0.57;;;;;;;;;;5324756;28;20027;-83
2024/01/08 13:59:36;;;;;;;2.27;0.60;;;;;;;;;;5324083;28;20028;-84
2024/01/08 14:02:10;;;;;;;1.90;0.50;;;;;;;;;;5324158;28;20110;-83
2024/01/08 14:04:42;;;;;;;2.40;0.50;;;;;;;;;;5324036;28;20023;-84
2024/01/08 14:07:13;;;;;;;2.53;0.50;;;;;;;;;;5323853;28;20467;-84
2024/01/08 14:09:45;;;;;;;1.13;0.50;;;;;;;;;;5324203;28;20428;-84
2024/01/08 14:12:16;;;;;;;1.40;0.50;;;;;;;;;;5324131;28;20096;-82
2024/01/08 14:14:48;;;;;;;1.30;0.50;;;;;;;;;;5323878;28;20027;-83
2024/01/08 14:17:19;;;;;;;1.47;0.50;;;;;;;;;;5324141;28;20536;-83
2024/01/08 14:19:50;;;;;;;1.63;0.57;;;;;;;;;;5325642;28;20072;-82
2024/01/08 14:22:21;;;;;;;1.80;0.83;;;;;;;;;;5327529;28;20016;-83
2024/01/08 14:24:53;;;;;;;1.67;0.60;;;;;;;;;;5328603;28;20019;-82
2024/01/08 14:27:24;;;;;;;1.70;0.50;;;;;;;;;;5327223;28;20022;-83
2024/01/08 14:29:55;;;;;;;3.47;0.50;;;;;;;;;;5328340;28;20027;-83
2024/01/08 14:32:26;;;;;;;1.53;0.50;;;;;;;;;;5327661;28;20043;-84
2024/01/08 14:34:58;;;;;;;1.87;0.60;;;;;;;;;;5327738;28;20382;-83
2024/01/08 14:37:29;;;;;;;5.53;0.63;;;;;;;;;;5328377;28;20096;-84
2024/01/08 14:40:00;;;;;;;1.40;0.50;;;;;;;;;;5328072;28;20026;-84
2024/01/08 14:42:32;;;;;;;0.90;0.40;;;;;;;;;;5327379;28;20030;-83
2024/01/08 14:45:05;;;;;;;1.77;0.70;;;;;;;;;;5328020;28;20031;-84
2024/01/08 14:47:36;;;;;;;1.93;0.70;;;;;;;;;;5328148;28;20067;-84
2024/01/08 14:50:08;;;;;;;1.30;0.50;;;;;;;;;;5326972;28;20069;-82
2024/01/08 14:52:39;;;;;;;1.40;0.50;;;;;;;;;;5327881;28;20432;-84
2024/01/08 14:55:10;;;;;;;1.30;0.50;;;;;;;;;;5327695;28;20024;-85
2024/01/08 14:57:41;;;;;;;1.83;0.40;;;;;;;;;;5327472;28;20416;-83
2024/01/08 15:00:13;;;;;;;3.30;0.60;;;;;;;;;;5330904;28;20478;-83
2024/01/08 15:02:45;;;;;;;1.00;0.40;;;;;;;;;;5331493;28;20024;-84
2024/01/08 15:05:16;;;;;;;1.60;0.57;;;;;;;;;;5327596;28;20061;-83
2024/01/08 15:07:48;;;;;;;2.23;0.50;;;;;;;;;;5327732;28;20092;-86
2024/01/08 15:10:19;;;;;;;2.07;0.60;;;;;;;;;;5326735;28;20023;-82